Time;durP1;ratioP1;P1;durP2;ratioP2;P2;SDS_P1;SDS_P2;PMS_P1;PMS_P2;Temp;Humidity;BMP_temperature;BMP_pressure;BME280_temperature;BME280_humidity;BME280_pressure;Samples;Min_cycle;Max_cycle;Signal;HPM_P1;HPM_P2
2023/01/26 00:02:38;;;;;;;33.83;12.73;;;0.60;99.90;;;;;;5069631;28;20460;-74
2023/01/26 00:08:11;;;;;;;21.03;8.87;;;0.80;99.90;;;;;;5063755;28;20497;-74
2023/01/26 00:11:05;;;;;;;22.87;11.10;;;0.80;99.90;;;;;;5067226;28;20455;-77
2023/01/26 00:13:54;;;;;;;;;;;;;;;;;;;;;
2023/01/26 00:16:37;;;;;;;35.10;11.20;;;0.90;99.90;;;;;;5013832;28;20563;-77
2023/01/26 00:19:16;;;;;;;33.90;11.97;;;0.90;99.90;;;;;;5063365;28;20477;-74
2023/01/26 00:22:00;;;;;;;24.80;11.10;;;0.90;99.90;;;;;;5061253;28;20544;-75
2023/01/26 00:24:33;;;;;;;24.33;10.80;;;0.80;99.90;;;;;;5064642;28;20456;-76
2023/01/26 00:27:07;;;;;;;30.27;14.80;;;0.60;99.90;;;;;;5073081;28;20467;-73
2023/01/26 00:40:30;;;;;;;21.40;8.50;;;0.80;99.90;;;;;;4914384;29;20457;-73
2023/01/26 01:03:49;;;;;;;17.57;13.33;;;0.50;99.90;;;;;;4777356;30;20584;-77
2023/01/26 01:30:41;;;;;;;33.97;11.60;;;0.80;99.90;;;;;;4796817;29;20650;-76
2023/01/26 01:44:43;;;;;;;;;;;;;;;;;;;;;
2023/01/26 01:47:27;;;;;;;33.30;10.10;;;1.10;99.90;;;;;;4911245;29;20463;-77
2023/01/26 01:50:03;;;;;;;19.03;9.13;;;0.90;99.90;;;;;;4906457;29;20452;-75
2023/01/26 01:52:38;;;;;;;44.17;11.73;;;1.00;99.90;;;;;;4886852;29;20522;-74
2023/01/26 02:02:03;;;;;;;25.33;12.93;;;1.20;99.90;;;;;;4930297;29;20531;-78
2023/01/26 02:04:52;;;;;;;21.37;12.10;;;1.10;99.90;;;;;;4922684;29;20471;-79
2023/01/26 02:07:46;;;;;;;27.73;12.37;;;1.00;99.90;;;;;;4932522;29;20471;-81
2023/01/26 02:14:26;;;;;;;20.63;9.33;;;1.00;99.90;;;;;;5056269;28;20444;-78
2023/01/26 02:17:17;;;;;;;;;;;;;;;;;;;;;
2023/01/26 02:20:34;;;;;;;;;;;;;;;;;;;;;
2023/01/26 02:23:45;;;;;;;25.87;10.37;;;1.10;99.90;;;;;;4964303;28;20502;-77
2023/01/26 02:43:57;;;;;;;31.07;12.70;;;1.10;99.90;;;;;;4903288;29;20424;-78
2023/01/26 02:46:55;;;;;;;21.43;8.40;;;1.20;99.90;;;;;;4876763;29;20466;-75
2023/01/26 02:52:36;;;;;;;18.00;7.73;;;1.10;99.90;;;;;;4922655;29;20480;-77
2023/01/26 02:58:48;;;;;;;31.20;14.07;;;0.90;99.90;;;;;;4890484;29;20527;-75
2023/01/26 03:10:24;;;;;;;36.83;11.30;;;0.80;99.90;;;;;;4962617;28;20500;-75
2023/01/26 04:22:34;;;;;;;23.23;12.40;;;1.10;99.90;;;;;;4802974;29;20510;-76
2023/01/26 05:10:51;;;;;;;28.63;11.53;;;1.10;99.90;;;;;;4942728;28;20430;-78
2023/01/26 05:13:30;;;;;;;31.30;12.53;;;1.10;99.90;;;;;;5064685;28;21329;-75
2023/01/26 05:16:37;;;;;;;28.03;10.83;;;1.00;99.90;;;;;;5054027;28;20463;-80
2023/01/26 05:19:07;;;;;;;19.73;7.40;;;1.00;99.90;;;;;;5064363;28;24696;-75
2023/01/26 05:28:53;;;;;;;23.13;10.20;;;1.10;99.90;;;;;;5051451;28;20493;-75
2023/01/26 05:32:21;;;;;;;20.27;11.70;;;1.10;99.90;;;;;;5023012;28;20482;-75
2023/01/26 05:35:38;;;;;;;29.03;14.40;;;1.00;99.90;;;;;;5031786;28;20439;-75
2023/01/26 05:45:53;;;;;;;33.77;14.67;;;1.00;99.90;;;;;;4803209;29;20474;-75
2023/01/26 06:01:26;;;;;;;15.43;7.00;;;1.10;99.90;;;;;;4708089;30;20449;-74
2023/01/26 06:33:48;;;;;;;22.67;12.00;;;1.30;99.90;;;;;;4939024;28;20469;-76
2023/01/26 06:43:13;;;;;;;27.47;10.50;;;1.40;99.90;;;;;;4983332;28;20453;-76
2023/01/26 06:46:34;;;;;;;17.93;11.07;;;1.40;99.90;;;;;;5070223;28;20455;-78
2023/01/26 06:50:06;;;;;;;27.43;10.27;;;1.20;99.90;;;;;;5036154;28;20450;-80
2023/01/26 06:52:40;;;;;;;25.30;8.80;;;1.30;99.90;;;;;;5079172;28;20561;-78
2023/01/26 06:58:36;;;;;;;21.70;9.57;;;1.40;99.90;;;;;;5042025;28;20989;-75
2023/01/26 07:01:13;;;;;;;26.47;9.57;;;1.40;99.90;;;;;;5075958;28;20462;-75
2023/01/26 07:14:19;;;;;;;42.30;12.27;;;1.40;99.90;;;;;;4869881;29;20433;-78
2023/01/26 07:17:24;;;;;;;19.23;6.83;;;1.30;99.90;;;;;;4954149;28;20430;-77
2023/01/26 07:20:18;;;;;;;18.43;9.70;;;1.40;99.90;;;;;;4949031;28;20455;-81
2023/01/26 07:23:12;;;;;;;22.67;9.37;;;1.50;99.90;;;;;;5011636;28;20674;-75
2023/01/26 07:25:45;;;;;;;24.20;10.67;;;1.50;99.90;;;;;;5011624;28;20859;-78
2023/01/26 07:28:29;;;;;;;21.27;11.10;;;1.50;99.90;;;;;;4978487;28;20503;-74
2023/01/26 07:35:08;;;;;;;22.37;8.80;;;1.50;99.90;;;;;;5011273;28;20447;-75
2023/01/26 07:38:05;;;;;;;23.37;9.50;;;1.60;99.90;;;;;;5030131;28;20540;-76
2023/01/26 07:41:03;;;;;;;17.93;10.97;;;1.50;99.90;;;;;;5009163;28;20454;-74
2023/01/26 07:48:05;;;;;;;23.77;11.17;;;1.40;99.90;;;;;;4917444;29;20481;-76
2023/01/26 07:57:32;;;;;;;16.13;9.97;;;1.20;99.90;;;;;;4953036;29;20468;-79
2023/01/26 08:17:35;;;;;;;;;;;;;;;;;;;;;
2023/01/26 08:20:25;;;;;;;45.03;12.60;;;1.40;99.90;;;;;;4767447;30;20524;-78
2023/01/26 08:23:44;;;;;;;15.13;6.47;;;1.50;99.90;;;;;;4827281;29;20844;-77
2023/01/26 08:29:36;;;;;;;36.00;10.83;;;1.30;99.90;;;;;;4786210;29;20465;-76
2023/01/26 08:49:19;;;;;;;18.80;10.87;;;1.70;99.90;;;;;;4811634;29;20524;-77
2023/01/26 09:11:31;;;;;;;15.07;8.90;;;1.70;99.90;;;;;;4777674;30;20904;-75
2023/01/26 09:14:24;;;;;;;26.37;10.33;;;1.80;99.90;;;;;;4829639;29;20488;-78
2023/01/26 09:17:04;;;;;;;17.13;8.07;;;1.80;99.90;;;;;;4794402;29;20466;-75
2023/01/26 09:19:42;;;;;;;34.30;10.70;;;1.90;99.90;;;;;;4891242;29;20444;-76
2023/01/26 09:26:00;;;;;;;20.57;10.83;;;1.80;99.90;;;;;;4868635;29;20535;-75
2023/01/26 09:32:32;;;;;;;;;;;;;;;;;;;;;
2023/01/26 09:35:21;;;;;;;30.23;10.77;;;1.90;99.90;;;;;;4928713;28;20556;-79
2023/01/26 09:37:54;;;;;;;21.23;9.60;;;2.00;99.90;;;;;;4927841;29;20497;-74
2023/01/26 09:40:49;;;;;;;11.27;7.57;;;2.00;99.90;;;;;;4981816;28;20460;-78
2023/01/26 09:43:32;;;;;;;18.53;7.10;;;2.00;99.90;;;;;;5011257;28;20455;-78
2023/01/26 09:49:42;;;;;;;19.47;8.80;;;2.10;99.90;;;;;;5009484;28;20453;-75
2023/01/26 09:52:17;;;;;;;30.20;9.23;;;2.30;99.90;;;;;;5088901;28;20496;-75
2023/01/26 09:55:24;;;;;;;13.20;8.53;;;2.30;99.90;;;;;;5080950;28;20466;-75
2023/01/26 10:38:54;;;;;;;10.77;4.97;;;2.30;99.90;;;;;;4726854;29;20517;-79
2023/01/26 10:46:00;;;;;;;6.37;3.60;;;2.30;99.90;;;;;;4819826;29;20471;-75
2023/01/26 10:56:01;;;;;;;10.70;5.20;;;2.20;99.90;;;;;;4848956;28;20407;-75
2023/01/26 11:13:07;;;;;;;9.00;4.10;;;2.40;99.90;;;;;;4923617;28;20509;-77
2023/01/26 11:16:11;;;;;;;3.90;3.30;;;2.30;99.90;;;;;;5064706;28;20494;-78
2023/01/26 11:18:58;;;;;;;4.60;2.83;;;2.30;99.90;;;;;;5071302;28;20476;-77
2023/01/26 11:21:58;;;;;;;8.90;4.87;;;2.40;99.90;;;;;;5069974;28;20478;-76
2023/01/26 11:24:34;;;;;;;10.17;3.63;;;2.50;99.90;;;;;;5059527;28;20444;-74
2023/01/26 11:30:55;;;;;;;6.47;5.00;;;2.70;99.90;;;;;;5035747;28;20450;-78
2023/01/26 11:33:57;;;;;;;7.20;4.70;;;2.80;99.90;;;;;;5032752;28;20515;-77
2023/01/26 11:36:34;;;;;;;7.30;3.87;;;2.60;99.90;;;;;;5037982;28;20467;-78
2023/01/26 11:39:27;;;;;;;9.63;4.50;;;2.60;99.90;;;;;;5029310;28;20988;-75
2023/01/26 11:45:22;;;;;;;8.30;4.80;;;2.70;99.90;;;;;;5026930;28;20450;-75
2023/01/26 11:48:17;;;;;;;6.60;3.80;;;2.80;99.90;;;;;;5032587;28;20432;-77
2023/01/26 11:50:47;;;;;;;4.70;2.93;;;2.80;99.90;;;;;;4965524;28;20548;-77
2023/01/26 11:53:50;;;;;;;3.47;2.60;;;2.60;99.90;;;;;;5028377;28;20473;-78
2023/01/26 11:56:36;;;;;;;8.80;5.10;;;2.50;99.90;;;;;;5032128;28;20964;-76
2023/01/26 12:01:59;;;;;;;10.00;2.93;;;2.60;99.90;;;;;;5029216;28;20709;-74
2023/01/26 12:04:36;;;;;;;6.83;3.47;;;2.50;99.90;;;;;;5028233;28;20459;-75
2023/01/26 12:10:07;;;;;;;5.63;3.63;;;2.40;99.90;;;;;;5080517;28;20472;-73
2023/01/26 12:15:55;;;;;;;5.60;2.90;;;2.50;99.90;;;;;;5053941;28;20885;-75
2023/01/26 12:18:25;;;;;;;6.90;4.47;;;2.60;99.90;;;;;;5069315;28;20430;-78
2023/01/26 12:20:58;;;;;;;5.23;2.97;;;2.50;99.90;;;;;;5059302;28;20531;-79
2023/01/26 12:23:37;;;;;;;4.63;2.77;;;2.60;99.90;;;;;;5079723;28;20459;-79
2023/01/26 12:26:13;;;;;;;4.40;3.10;;;2.50;99.90;;;;;;5074897;28;20456;-76
2023/01/26 12:35:16;;;;;;;3.43;2.90;;;2.50;99.90;;;;;;5071813;28;21882;-74
2023/01/26 12:38:22;;;;;;;6.57;4.07;;;2.40;99.90;;;;;;5075533;28;20484;-75
2023/01/26 12:41:37;;;;;;;8.90;4.20;;;2.50;99.90;;;;;;5077969;28;20475;-79
2023/01/26 12:44:14;;;;;;;2.93;2.20;;;2.50;99.90;;;;;;5072503;28;20440;-76
2023/01/26 12:46:47;;;;;;;9.87;3.90;;;2.60;99.90;;;;;;5074071;28;20487;-76
2023/01/26 12:49:42;;;;;;;5.00;3.40;;;2.70;99.90;;;;;;5073403;28;20561;-78
2023/01/26 12:55:16;;;;;;;5.40;2.80;;;2.70;99.90;;;;;;5068212;28;20454;-78
2023/01/26 12:58:07;;;;;;;11.83;4.23;;;2.80;99.90;;;;;;5044337;28;20444;-77
2023/01/26 13:00:52;;;;;;;6.73;4.57;;;2.90;99.90;;;;;;5082588;28;20429;-78
2023/01/26 13:04:06;;;;;;;3.33;2.20;;;3.10;99.90;;;;;;5082508;28;20445;-78
2023/01/26 13:06:33;;;;;;;14.77;3.90;;;3.00;99.90;;;;;;5077625;28;20451;-78
2023/01/26 13:09:47;;;;;;;;;;;;;;;;;;;;;
2023/01/26 13:13:08;;;;;;;5.53;4.13;;;2.90;99.90;;;;;;5072178;28;21007;-77
2023/01/26 13:16:12;;;;;;;5.73;5.03;;;2.80;99.90;;;;;;5049207;28;20457;-77
2023/01/26 13:25:44;;;;;;;5.10;3.37;;;2.70;99.90;;;;;;5036433;28;20947;-76
2023/01/26 13:34:57;;;;;;;8.87;6.23;;;2.90;99.90;;;;;;5033795;28;20431;-74
2023/01/26 13:37:36;;;;;;;4.57;4.17;;;3.00;99.90;;;;;;5047462;28;20460;-73
2023/01/26 13:40:17;;;;;;;5.73;3.40;;;3.00;99.90;;;;;;5041572;28;20457;-77
2023/01/26 13:43:09;;;;;;;14.70;5.97;;;3.00;99.90;;;;;;5007232;28;20478;-78
2023/01/26 13:45:44;;;;;;;16.37;4.10;;;3.00;99.90;;;;;;5035144;28;20469;-74
2023/01/26 13:51:03;;;;;;;19.93;5.13;;;3.10;99.90;;;;;;5027914;28;21068;-73
2023/01/26 13:53:43;;;;;;;9.43;5.63;;;3.10;99.90;;;;;;5039257;28;20442;-75
2023/01/26 13:56:35;;;;;;;8.30;3.97;;;3.10;99.90;;;;;;5042268;28;21040;-73
2023/01/26 14:02:12;;;;;;;9.83;4.80;;;3.10;99.90;;;;;;5060916;28;20445;-77
2023/01/26 14:04:57;;;;;;;10.90;7.43;;;3.20;99.90;;;;;;5077013;28;20429;-77
2023/01/26 14:07:46;;;;;;;10.17;5.50;;;3.10;99.90;;;;;;5073271;28;20438;-76
2023/01/26 14:10:25;;;;;;;39.97;7.90;;;3.10;99.90;;;;;;5071800;28;20482;-74
2023/01/26 14:13:03;;;;;;;7.30;4.20;;;3.20;99.90;;;;;;5077365;28;20527;-77
2023/01/26 14:15:32;;;;;;;13.00;6.33;;;3.20;99.90;;;;;;5073569;28;20484;-78
2023/01/26 14:18:20;;;;;;;19.23;8.87;;;3.20;99.90;;;;;;5073270;28;20539;-76
2023/01/26 14:23:40;;;;;;;8.73;5.23;;;3.20;99.90;;;;;;5070692;28;20434;-77
2023/01/26 14:26:32;;;;;;;14.60;6.17;;;3.30;99.90;;;;;;5076892;28;20434;-77
2023/01/26 14:29:07;;;;;;;16.00;5.10;;;3.30;99.90;;;;;;5068775;28;20437;-77
2023/01/26 14:31:39;;;;;;;15.10;4.77;;;3.50;99.90;;;;;;5080466;28;20540;-74
2023/01/26 14:34:27;;;;;;;8.97;4.60;;;3.40;99.90;;;;;;5071934;28;21011;-76
2023/01/26 14:40:27;;;;;;;7.77;6.50;;;3.70;99.90;;;;;;5068028;28;20446;-77
2023/01/26 14:43:18;;;;;;;12.07;7.23;;;3.80;99.90;;;;;;5062653;28;20535;-75
2023/01/26 14:45:55;;;;;;;17.23;5.87;;;3.70;99.90;;;;;;5070585;28;20463;-74
2023/01/26 14:48:28;;;;;;;10.07;7.97;;;3.80;99.90;;;;;;5070506;28;20469;-77
2023/01/26 14:51:02;;;;;;;12.40;5.83;;;3.90;99.90;;;;;;5078028;28;20564;-74
2023/01/26 14:53:39;;;;;;;14.13;9.10;;;3.90;99.90;;;;;;5075859;28;20501;-77
2023/01/26 14:56:20;;;;;;;14.77;6.43;;;4.10;99.90;;;;;;5072957;28;21036;-75
2023/01/26 14:59:08;;;;;;;15.10;5.97;;;3.90;99.90;;;;;;5072148;28;20435;-74
2023/01/26 15:01:51;;;;;;;31.17;7.10;;;4.00;99.90;;;;;;5066725;28;20448;-73
2023/01/26 15:04:45;;;;;;;9.87;4.73;;;4.00;99.90;;;;;;5039690;28;20521;-79
2023/01/26 15:07:57;;;;;;;16.50;7.03;;;4.00;99.90;;;;;;5054956;28;20461;-78
2023/01/26 15:13:58;;;;;;;;;;;;;;;;;;;;;
2023/01/26 15:16:54;;;;;;;9.93;5.07;;;4.10;99.90;;;;;;5076629;28;20470;-77
2023/01/26 15:19:32;;;;;;;40.07;8.57;;;4.00;99.90;;;;;;5073260;28;20438;-73
2023/01/26 15:22:34;;;;;;;20.90;6.87;;;4.10;99.90;;;;;;5064893;28;20450;-76
2023/01/26 15:25:09;;;;;;;29.00;7.23;;;4.20;99.90;;;;;;5066745;28;20454;-76
2023/01/26 15:27:57;;;;;;;9.30;5.20;;;4.10;99.90;;;;;;5067676;28;20461;-76
2023/01/26 15:30:40;;;;;;;13.43;6.70;;;4.00;99.90;;;;;;5071524;28;20779;-77
2023/01/26 15:34:05;;;;;;;7.60;6.43;;;4.20;99.90;;;;;;5072422;28;20451;-74
2023/01/26 15:36:53;;;;;;;12.90;5.40;;;4.40;99.90;;;;;;5069085;28;20462;-74
2023/01/26 15:39:21;;;;;;;11.33;5.63;;;4.30;99.90;;;;;;5075593;28;20477;-76
2023/01/26 15:42:11;;;;;;;18.47;7.03;;;4.20;99.90;;;;;;5065412;28;20460;-74
2023/01/26 15:44:40;;;;;;;16.37;5.73;;;4.20;99.90;;;;;;5072507;28;20482;-77
2023/01/26 15:47:33;;;;;;;15.53;7.47;;;4.30;99.90;;;;;;5073050;28;20452;-73
2023/01/26 15:53:32;;;;;;;15.00;4.97;;;4.20;99.90;;;;;;5070280;28;20458;-75
2023/01/26 15:56:04;;;;;;;16.77;7.43;;;4.20;99.90;;;;;;5058236;28;20942;-77
2023/01/26 15:58:35;;;;;;;15.30;7.40;;;4.20;99.90;;;;;;5058440;28;20458;-74
2023/01/26 16:01:04;;;;;;;9.87;6.23;;;4.20;99.90;;;;;;5060115;28;20475;-77
2023/01/26 16:03:34;;;;;;;18.03;7.90;;;4.30;99.90;;;;;;5064328;28;20468;-74
2023/01/26 16:06:04;;;;;;;8.60;5.77;;;4.30;99.90;;;;;;5060028;28;20426;-77
2023/01/26 16:08:32;;;;;;;15.10;7.50;;;4.30;99.90;;;;;;5062277;28;20429;-75
2023/01/26 16:11:01;;;;;;;14.83;5.43;;;4.20;99.90;;;;;;5061206;28;20529;-79
2023/01/26 16:13:30;;;;;;;15.77;7.93;;;4.20;99.90;;;;;;5060480;28;21633;-78
2023/01/26 16:16:10;;;;;;;12.13;4.60;;;4.10;99.90;;;;;;5061243;28;20438;-77
2023/01/26 16:18:46;;;;;;;11.40;4.93;;;4.10;99.90;;;;;;5059479;28;20448;-75
2023/01/26 16:21:40;;;;;;;21.17;8.47;;;4.20;99.90;;;;;;5059149;28;20517;-76
2023/01/26 16:29:54;;;;;;;24.47;8.47;;;4.30;99.90;;;;;;5068025;28;20899;-73
2023/01/26 16:32:28;;;;;;;16.37;6.50;;;4.20;99.90;;;;;;5066793;28;20912;-76
2023/01/26 16:35:06;;;;;;;22.30;10.57;;;4.20;99.90;;;;;;5063498;28;20464;-78
2023/01/26 16:37:42;;;;;;;16.73;8.53;;;4.30;99.90;;;;;;5061881;28;20474;-75
2023/01/26 16:40:13;;;;;;;20.30;9.40;;;4.30;99.90;;;;;;5025016;28;20698;-78
2023/01/26 16:42:48;;;;;;;16.30;8.33;;;4.30;99.90;;;;;;5062813;28;20481;-77
2023/01/26 16:48:46;;;;;;;22.67;9.90;;;4.30;99.90;;;;;;5040426;28;20461;-73
2023/01/26 16:51:23;;;;;;;11.20;6.60;;;4.30;99.90;;;;;;4986884;28;20629;-75
2023/01/26 16:54:01;;;;;;;15.20;7.10;;;4.50;99.90;;;;;;5075436;28;20440;-77
2023/01/26 17:00:12;;;;;;;16.73;8.07;;;4.40;99.90;;;;;;5039392;28;20515;-77
2023/01/26 17:05:50;;;;;;;14.07;9.37;;;4.50;99.90;;;;;;5068212;28;20490;-77
2023/01/26 17:08:25;;;;;;;15.77;6.57;;;4.40;99.90;;;;;;5050707;28;20517;-76
2023/01/26 17:11:10;;;;;;;16.67;6.47;;;4.40;99.90;;;;;;5062186;28;20838;-77
2023/01/26 17:16:46;;;;;;;9.90;5.93;;;4.30;99.90;;;;;;5061223;28;20465;-80
2023/01/26 17:19:58;;;;;;;;;;;;;;;;;;;;;
2023/01/26 17:25:49;;;;;;;10.20;5.33;;;4.60;99.90;;;;;;5062687;28;20429;-76
2023/01/26 17:29:07;;;;;;;14.97;7.87;;;4.70;99.90;;;;;;5049483;28;20461;-73
2023/01/26 17:31:37;;;;;;;21.57;11.03;;;4.60;99.90;;;;;;5058035;28;20554;-73
2023/01/26 17:34:12;;;;;;;24.73;11.43;;;4.60;99.90;;;;;;5054766;28;20551;-74
2023/01/26 17:39:50;;;;;;;17.77;9.83;;;4.50;99.90;;;;;;5053917;28;20915;-75
2023/01/26 17:42:29;;;;;;;26.73;9.30;;;4.40;99.90;;;;;;5063461;28;20488;-75
2023/01/26 17:45:08;;;;;;;16.70;9.23;;;4.50;99.90;;;;;;5071072;28;20503;-75
2023/01/26 17:47:45;;;;;;;20.67;9.70;;;4.50;99.90;;;;;;5060894;28;20481;-74
2023/01/26 17:50:46;;;;;;;24.40;9.43;;;4.50;99.90;;;;;;5060684;28;20451;-74
2023/01/26 17:53:30;;;;;;;21.03;8.27;;;4.50;99.90;;;;;;5065727;28;20998;-74
2023/01/26 17:56:18;;;;;;;12.23;6.80;;;4.60;99.90;;;;;;5055278;28;20561;-75
2023/01/26 17:59:11;;;;;;;18.73;7.20;;;4.50;99.90;;;;;;5058327;28;20557;-75
2023/01/26 18:02:04;;;;;;;21.40;7.37;;;4.40;99.90;;;;;;5055373;28;20487;-74
2023/01/26 18:04:38;;;;;;;21.83;8.10;;;4.50;99.90;;;;;;5054206;28;20577;-74
2023/01/26 18:10:29;;;;;;;15.37;7.27;;;4.40;99.90;;;;;;5066785;28;20525;-74
2023/01/26 18:13:34;;;;;;;20.83;6.80;;;4.50;99.90;;;;;;5052119;28;20476;-74
2023/01/26 18:16:08;;;;;;;14.37;8.50;;;4.50;99.90;;;;;;5018318;28;20491;-76
2023/01/26 18:18:37;;;;;;;34.60;9.33;;;4.50;99.90;;;;;;5054595;28;20483;-77
2023/01/26 18:21:21;;;;;;;32.03;11.63;;;4.50;99.90;;;;;;5064441;28;20450;-77
2023/01/26 18:23:50;;;;;;;18.80;8.70;;;4.60;99.90;;;;;;5056232;28;20972;-76
2023/01/26 18:26:22;;;;;;;21.93;9.53;;;4.60;99.90;;;;;;5062738;28;20866;-73
2023/01/26 18:28:50;;;;;;;17.80;8.17;;;4.50;99.90;;;;;;5061359;28;20487;-73
2023/01/26 18:31:20;;;;;;;15.37;8.17;;;4.40;99.90;;;;;;5058959;28;20462;-73
2023/01/26 18:33:48;;;;;;;37.63;11.87;;;4.40;99.90;;;;;;5051231;28;20461;-75
2023/01/26 18:36:18;;;;;;;25.80;9.10;;;4.40;99.90;;;;;;5062229;28;20490;-75
2023/01/26 18:38:54;;;;;;;19.27;11.73;;;4.40;99.90;;;;;;5056629;28;20843;-76
2023/01/26 18:41:29;;;;;;;14.40;7.80;;;4.50;99.90;;;;;;5055207;28;20972;-72
2023/01/26 18:44:07;;;;;;;37.07;9.70;;;4.50;99.90;;;;;;5060290;28;20472;-76
2023/01/26 18:46:36;;;;;;;29.27;9.60;;;4.50;99.90;;;;;;5052005;28;21021;-77
2023/01/26 18:49:23;;;;;;;21.90;11.67;;;4.50;99.90;;;;;;5061221;28;20493;-76
2023/01/26 18:51:51;;;;;;;24.63;13.30;;;4.60;99.90;;;;;;5048793;28;20573;-74
2023/01/26 18:54:21;;;;;;;22.50;13.97;;;4.60;99.90;;;;;;5057430;28;20462;-75
2023/01/26 18:56:51;;;;;;;38.20;12.50;;;4.70;99.90;;;;;;5059642;28;20491;-74
2023/01/26 18:59:29;;;;;;;21.77;12.27;;;4.70;99.90;;;;;;5057812;28;20901;-76
2023/01/26 19:02:05;;;;;;;28.47;11.37;;;4.60;99.90;;;;;;5069399;28;20473;-83
2023/01/26 19:04:34;;;;;;;35.87;14.90;;;4.60;99.90;;;;;;5067887;28;20449;-77
2023/01/26 19:07:03;;;;;;;26.30;13.07;;;4.50;99.90;;;;;;5066259;28;20474;-78
2023/01/26 19:09:34;;;;;;;24.97;13.20;;;4.60;99.90;;;;;;5069381;28;20458;-77
2023/01/26 19:12:02;;;;;;;24.97;11.27;;;4.60;99.90;;;;;;5065358;28;20498;-76
2023/01/26 19:14:32;;;;;;;17.40;9.30;;;4.70;99.90;;;;;;5062806;28;20513;-78
2023/01/26 19:17:04;;;;;;;25.63;11.57;;;4.50;99.90;;;;;;5068711;28;20453;-76
2023/01/26 19:19:31;;;;;;;22.13;11.53;;;4.50;99.90;;;;;;5071772;28;20560;-77
2023/01/26 19:22:03;;;;;;;19.77;11.50;;;4.40;99.90;;;;;;5066551;28;20488;-76
2023/01/26 19:24:30;;;;;;;30.03;11.03;;;4.50;99.90;;;;;;5067588;28;20465;-77
2023/01/26 19:27:05;;;;;;;14.80;11.90;;;4.50;99.90;;;;;;5069124;28;20462;-76
2023/01/26 19:29:32;;;;;;;22.53;10.13;;;4.70;99.90;;;;;;5060414;28;20839;-76
2023/01/26 19:32:07;;;;;;;24.67;12.30;;;4.60;99.90;;;;;;5057820;28;20461;-76
2023/01/26 19:34:35;;;;;;;21.33;9.53;;;4.70;99.90;;;;;;5063487;28;20461;-78
2023/01/26 19:37:07;;;;;;;23.13;9.50;;;4.60;99.90;;;;;;5074079;28;20426;-73
2023/01/26 19:39:40;;;;;;;27.33;11.53;;;4.60;99.90;;;;;;5065754;28;20489;-76
2023/01/26 19:42:11;;;;;;;19.10;10.10;;;4.60;99.90;;;;;;5070253;28;20456;-80
2023/01/26 19:44:44;;;;;;;28.23;11.17;;;4.60;99.90;;;;;;5061043;28;20464;-73
2023/01/26 19:47:15;;;;;;;30.07;12.87;;;4.60;99.90;;;;;;5049046;28;20462;-76
2023/01/26 19:49:42;;;;;;;43.13;13.30;;;4.60;99.90;;;;;;5057260;28;20460;-75
2023/01/26 19:52:34;;;;;;;;;;;;;;;;;;;;;
2023/01/26 19:55:08;;;;;;;23.27;14.20;;;4.60;99.90;;;;;;5054338;28;21742;-75
2023/01/26 19:57:47;;;;;;;35.87;11.40;;;4.60;99.90;;;;;;5061125;28;20463;-74
2023/01/26 20:00:16;;;;;;;21.60;11.00;;;4.60;99.90;;;;;;5066659;28;20473;-75
2023/01/26 20:02:48;;;;;;;19.70;8.67;;;4.60;99.90;;;;;;5054116;28;20458;-74
2023/01/26 20:05:18;;;;;;;17.57;10.27;;;4.60;99.90;;;;;;5050865;28;20621;-76
2023/01/26 20:07:46;;;;;;;22.20;10.33;;;4.60;99.90;;;;;;5050501;28;20490;-77
2023/01/26 20:10:14;;;;;;;33.73;15.30;;;4.60;99.90;;;;;;5051335;28;20468;-81
2023/01/26 20:12:48;;;;;;;19.70;11.23;;;4.70;99.90;;;;;;5024765;28;20473;-73
2023/01/26 20:15:15;;;;;;;36.63;9.70;;;4.70;99.90;;;;;;5061143;28;20449;-76
2023/01/26 20:17:44;;;;;;;25.83;14.07;;;4.70;99.90;;;;;;5059185;28;20465;-73
2023/01/26 20:20:16;;;;;;;19.50;10.63;;;4.70;99.90;;;;;;5048526;28;20895;-73
2023/01/26 20:22:44;;;;;;;26.67;10.47;;;4.70;99.90;;;;;;5019055;28;20504;-76
2023/01/26 20:25:14;;;;;;;19.70;10.20;;;4.80;99.90;;;;;;5066173;28;20997;-74
2023/01/26 20:27:44;;;;;;;19.60;10.37;;;4.70;99.90;;;;;;5064386;28;20557;-77
2023/01/26 20:30:12;;;;;;;15.60;9.33;;;4.80;99.90;;;;;;5069372;28;20556;-75
2023/01/26 20:32:39;;;;;;;21.63;8.87;;;4.80;99.90;;;;;;5061230;28;20468;-74
2023/01/26 20:38:22;;;;;;;14.03;8.30;;;4.80;99.90;;;;;;4955062;28;20450;-74
2023/01/26 20:41:01;;;;;;;14.00;5.83;;;4.80;99.90;;;;;;4985189;28;20675;-73
2023/01/26 20:43:28;;;;;;;6.40;3.90;;;4.90;99.90;;;;;;4980636;28;20584;-79
2023/01/26 20:45:58;;;;;;;8.20;3.80;;;4.90;99.90;;;;;;4970721;28;20465;-77
2023/01/26 20:48:33;;;;;;;9.93;4.53;;;4.90;99.90;;;;;;4990471;28;20461;-76
2023/01/26 20:51:09;;;;;;;7.53;4.67;;;4.80;99.90;;;;;;4980476;28;20535;-76
2023/01/26 20:53:52;;;;;;;9.53;4.27;;;4.90;99.90;;;;;;4973690;28;20487;-75
2023/01/26 20:56:23;;;;;;;19.70;3.50;;;5.00;99.90;;;;;;4990927;28;21022;-77
2023/01/26 20:58:56;;;;;;;18.13;5.77;;;5.10;99.90;;;;;;4992031;28;20472;-74
2023/01/26 21:01:36;;;;;;;6.73;3.17;;;5.10;99.90;;;;;;4989979;28;21002;-78
2023/01/26 21:04:15;;;;;;;4.73;3.30;;;5.00;99.90;;;;;;4986485;28;20485;-76
2023/01/26 21:06:58;;;;;;;14.53;4.30;;;5.10;99.90;;;;;;4992412;28;20429;-73
2023/01/26 21:09:35;;;;;;;8.30;4.17;;;5.10;99.90;;;;;;5003152;28;20429;-72
2023/01/26 21:12:12;;;;;;;4.00;2.90;;;5.10;99.90;;;;;;4951577;28;20464;-77
2023/01/26 21:14:42;;;;;;;2.43;2.00;;;5.10;99.90;;;;;;5001854;28;20429;-76
2023/01/26 21:17:14;;;;;;;5.33;3.00;;;5.00;99.90;;;;;;4978308;28;21035;-76
2023/01/26 21:19:41;;;;;;;4.23;3.50;;;5.10;99.90;;;;;;4988338;28;20483;-77
2023/01/26 21:22:16;;;;;;;2.10;1.87;;;5.10;99.90;;;;;;4986860;28;20527;-76
2023/01/26 21:24:48;;;;;;;7.40;2.83;;;5.10;99.90;;;;;;4979162;28;21244;-76
2023/01/26 21:27:49;;;;;;;7.47;4.43;;;5.10;99.90;;;;;;4986901;28;21037;-76
2023/01/26 21:30:30;;;;;;;3.40;3.07;;;5.10;99.90;;;;;;4976801;28;20459;-78
2023/01/26 21:32:59;;;;;;;5.23;2.17;;;5.10;99.90;;;;;;4987098;28;20544;-74
2023/01/26 21:35:26;;;;;;;3.53;2.63;;;5.10;99.90;;;;;;5010276;28;20453;-77
2023/01/26 21:37:58;;;;;;;3.53;2.50;;;5.20;99.90;;;;;;5067567;28;20475;-75
2023/01/26 21:40:28;;;;;;;1.87;1.70;;;5.20;99.90;;;;;;5070407;28;20438;-76
2023/01/26 21:43:18;;;;;;;4.93;2.77;;;5.20;99.90;;;;;;5066378;28;20432;-75
2023/01/26 21:46:03;;;;;;;3.97;2.37;;;5.10;99.90;;;;;;5057900;28;20441;-74
2023/01/26 21:48:40;;;;;;;4.00;2.50;;;5.20;99.90;;;;;;5062706;28;20429;-76
2023/01/26 21:53:59;;;;;;;1.50;1.20;;;5.10;99.90;;;;;;5070071;28;21250;-79
2023/01/26 21:56:30;;;;;;;3.50;1.20;;;5.10;99.90;;;;;;5063678;28;20821;-79
2023/01/26 21:59:01;;;;;;;3.10;2.37;;;5.20;99.90;;;;;;5059870;28;20430;-77
2023/01/26 22:01:42;;;;;;;1.83;1.30;;;5.10;99.90;;;;;;5062986;28;20536;-76
2023/01/26 22:04:15;;;;;;;2.87;2.17;;;5.20;99.90;;;;;;5073234;28;20433;-77
2023/01/26 22:07:12;;;;;;;3.30;1.97;;;5.10;99.90;;;;;;5060971;28;20588;-73
2023/01/26 22:09:48;;;;;;;5.43;1.50;;;5.00;99.90;;;;;;5066346;28;21207;-79
2023/01/26 22:12:17;;;;;;;4.13;2.60;;;4.90;99.90;;;;;;5055060;28;20486;-75
2023/01/26 22:14:45;;;;;;;2.63;1.70;;;4.80;99.90;;;;;;5059243;28;20447;-77
2023/01/26 22:17:15;;;;;;;1.73;1.63;;;4.80;99.90;;;;;;5066620;28;20580;-73
2023/01/26 22:19:41;;;;;;;7.37;3.73;;;4.90;99.90;;;;;;5073178;28;20509;-75
2023/01/26 22:22:08;;;;;;;4.30;1.63;;;4.90;99.90;;;;;;5074321;28;20484;-73
2023/01/26 22:24:39;;;;;;;1.90;1.80;;;4.80;99.90;;;;;;5077115;28;20457;-75
2023/01/26 22:27:10;;;;;;;4.70;1.90;;;4.90;99.90;;;;;;5061963;28;20462;-76
2023/01/26 22:29:41;;;;;;;2.37;2.17;;;4.90;99.90;;;;;;5058703;28;20456;-77
2023/01/26 22:32:08;;;;;;;3.00;1.77;;;4.90;99.90;;;;;;5060768;28;20465;-75
2023/01/26 22:34:35;;;;;;;4.17;2.10;;;5.00;99.90;;;;;;5061843;28;20468;-78
2023/01/26 22:37:05;;;;;;;3.33;1.90;;;5.20;99.90;;;;;;5060555;28;20972;-74
2023/01/26 22:39:33;;;;;;;4.73;2.40;;;5.10;99.90;;;;;;5049073;28;20425;-79
2023/01/26 22:42:04;;;;;;;5.73;2.53;;;5.00;99.90;;;;;;5061404;28;20521;-77
2023/01/26 22:48:02;;;;;;;4.33;1.77;;;5.00;99.90;;;;;;5069676;28;21100;-77
2023/01/26 22:51:15;;;;;;;7.40;2.77;;;4.90;99.90;;;;;;5060505;28;20478;-76
2023/01/26 22:53:50;;;;;;;5.80;1.93;;;4.90;99.90;;;;;;5063279;28;20438;-77
2023/01/26 22:56:24;;;;;;;15.90;2.40;;;5.10;99.90;;;;;;5062367;28;20456;-76
2023/01/26 22:58:55;;;;;;;9.40;2.67;;;5.00;99.90;;;;;;5066464;28;20432;-77
2023/01/26 23:01:23;;;;;;;2.70;2.40;;;5.00;99.90;;;;;;5042006;28;21255;-74
2023/01/26 23:04:04;;;;;;;3.43;1.87;;;5.10;99.90;;;;;;5061137;28;20452;-77
2023/01/26 23:06:31;;;;;;;3.70;2.27;;;5.20;99.90;;;;;;5046119;28;20579;-77
2023/01/26 23:09:03;;;;;;;3.23;2.33;;;5.20;99.90;;;;;;5064644;28;20455;-78
2023/01/26 23:11:31;;;;;;;2.40;2.20;;;5.10;99.90;;;;;;5018683;28;20483;-78
2023/01/26 23:16:41;;;;;;;3.70;1.83;;;5.00;99.90;;;;;;5053015;28;20443;-75
2023/01/26 23:19:32;;;;;;;3.60;1.83;;;5.10;99.90;;;;;;5053493;28;20450;-77
2023/01/26 23:22:04;;;;;;;16.53;3.90;;;5.10;99.90;;;;;;5049628;28;20450;-76